sensor_id;sensor_type;location;lat;lon;timestamp;P1;durP1;ratioP1;P2;durP2;ratioP2
33844;SDS011;20145;43.118;25.694;2023-05-21T00:01:40;12.65;;;9.55;;
33844;SDS011;20145;43.118;25.694;2023-05-21T00:04:07;10.40;;;9.40;;
33844;SDS011;20145;43.118;25.694;2023-05-21T00:06:33;14.25;;;9.48;;
33844;SDS011;20145;43.118;25.694;2023-05-21T00:09:03;11.60;;;9.20;;
33844;SDS011;20145;43.118;25.694;2023-05-21T00:11:29;11.02;;;8.50;;
33844;SDS011;20145;43.118;25.694;2023-05-21T00:13:55;12.45;;;8.20;;
33844;SDS011;20145;43.118;25.694;2023-05-21T00:16:21;13.07;;;8.18;;
33844;SDS011;20145;43.118;25.694;2023-05-21T00:18:47;11.40;;;8.98;;
33844;SDS011;20145;43.118;25.694;2023-05-21T00:21:16;10.60;;;9.07;;
33844;SDS011;20145;43.118;25.694;2023-05-21T00:23:44;20.52;;;9.40;;
33844;SDS011;20145;43.118;25.694;2023-05-21T00:26:12;11.50;;;8.98;;
33844;SDS011;20145;43.118;25.694;2023-05-21T00:28:37;13.25;;;10.52;;
33844;SDS011;20145;43.118;25.694;2023-05-21T00:31:10;15.88;;;8.80;;
33844;SDS011;20145;43.118;25.694;2023-05-21T00:33:36;15.18;;;10.23;;
33844;SDS011;20145;43.118;25.694;2023-05-21T00:36:03;13.88;;;9.77;;
33844;SDS011;20145;43.118;25.694;2023-05-21T00:38:31;13.43;;;9.95;;
33844;SDS011;20145;43.118;25.694;2023-05-21T00:41:03;12.70;;;9.98;;
33844;SDS011;20145;43.118;25.694;2023-05-21T00:43:30;13.85;;;9.23;;
33844;SDS011;20145;43.118;25.694;2023-05-21T00:45:56;16.33;;;9.98;;
33844;SDS011;20145;43.118;25.694;2023-05-21T00:48:23;12.63;;;9.45;;
33844;SDS011;20145;43.118;25.694;2023-05-21T00:50:51;13.15;;;10.20;;
33844;SDS011;20145;43.118;25.694;2023-05-21T00:53:17;9.80;;;8.90;;
33844;SDS011;20145;43.118;25.694;2023-05-21T00:58:14;12.38;;;9.88;;
33844;SDS011;20145;43.118;25.694;2023-05-21T01:00:42;13.27;;;10.27;;
33844;SDS011;20145;43.118;25.694;2023-05-21T01:03:09;17.92;;;11.07;;
33844;SDS011;20145;43.118;25.694;2023-05-21T01:05:37;13.07;;;10.70;;
33844;SDS011;20145;43.118;25.694;2023-05-21T01:08:15;16.98;;;10.73;;
33844;SDS011;20145;43.118;25.694;2023-05-21T01:23:16;12.23;;;11.02;;
33844;SDS011;20145;43.118;25.694;2023-05-21T01:25:51;12.77;;;11.43;;
33844;SDS011;20145;43.118;25.694;2023-05-21T01:28:31;21.73;;;12.15;;
33844;SDS011;20145;43.118;25.694;2023-05-21T01:31:10;19.05;;;11.18;;
33844;SDS011;20145;43.118;25.694;2023-05-21T01:36:46;15.63;;;12.98;;
33844;SDS011;20145;43.118;25.694;2023-05-21T01:45:22;16.48;;;14.48;;
33844;SDS011;20145;43.118;25.694;2023-05-21T01:53:52;17.17;;;12.95;;
33844;SDS011;20145;43.118;25.694;2023-05-21T01:56:18;17.50;;;13.40;;
33844;SDS011;20145;43.118;25.694;2023-05-21T01:58:43;14.48;;;12.95;;
33844;SDS011;20145;43.118;25.694;2023-05-21T02:03:40;14.82;;;12.35;;
33844;SDS011;20145;43.118;25.694;2023-05-21T02:06:07;20.83;;;13.73;;
33844;SDS011;20145;43.118;25.694;2023-05-21T02:08:34;15.20;;;13.57;;
33844;SDS011;20145;43.118;25.694;2023-05-21T02:11:00;16.70;;;13.52;;
33844;SDS011;20145;43.118;25.694;2023-05-21T02:13:27;15.48;;;13.45;;
33844;SDS011;20145;43.118;25.694;2023-05-21T02:15:54;17.52;;;12.63;;
33844;SDS011;20145;43.118;25.694;2023-05-21T02:18:22;18.60;;;13.70;;
33844;SDS011;20145;43.118;25.694;2023-05-21T02:20:47;15.20;;;13.48;;
33844;SDS011;20145;43.118;25.694;2023-05-21T02:23:13;16.58;;;13.15;;
33844;SDS011;20145;43.118;25.694;2023-05-21T02:28:09;13.63;;;12.07;;
33844;SDS011;20145;43.118;25.694;2023-05-21T02:30:36;17.55;;;15.35;;
33844;SDS011;20145;43.118;25.694;2023-05-21T02:33:02;14.88;;;12.55;;
33844;SDS011;20145;43.118;25.694;2023-05-21T02:35:29;15.15;;;12.25;;
33844;SDS011;20145;43.118;25.694;2023-05-21T02:37:55;18.48;;;13.43;;
33844;SDS011;20145;43.118;25.694;2023-05-21T02:40:23;17.02;;;12.43;;
33844;SDS011;20145;43.118;25.694;2023-05-21T02:42:49;19.90;;;12.85;;
33844;SDS011;20145;43.118;25.694;2023-05-21T02:45:14;16.50;;;13.13;;
33844;SDS011;20145;43.118;25.694;2023-05-21T02:47:41;20.20;;;13.75;;
33844;SDS011;20145;43.118;25.694;2023-05-21T02:50:07;20.23;;;14.27;;
33844;SDS011;20145;43.118;25.694;2023-05-21T02:52:34;19.25;;;14.35;;
33844;SDS011;20145;43.118;25.694;2023-05-21T02:54:59;18.50;;;15.32;;
33844;SDS011;20145;43.118;25.694;2023-05-21T02:57:26;16.50;;;13.15;;
33844;SDS011;20145;43.118;25.694;2023-05-21T02:59:53;16.42;;;14.10;;
33844;SDS011;20145;43.118;25.694;2023-05-21T03:02:19;17.10;;;14.43;;
33844;SDS011;20145;43.118;25.694;2023-05-21T03:11:07;24.20;;;16.83;;
33844;SDS011;20145;43.118;25.694;2023-05-21T03:13:45;18.92;;;16.90;;
33844;SDS011;20145;43.118;25.694;2023-05-21T03:19:33;20.33;;;15.40;;
33844;SDS011;20145;43.118;25.694;2023-05-21T03:25:14;22.67;;;16.75;;
33844;SDS011;20145;43.118;25.694;2023-05-21T03:27:41;19.77;;;17.70;;
33844;SDS011;20145;43.118;25.694;2023-05-21T03:30:08;21.17;;;18.98;;
33844;SDS011;20145;43.118;25.694;2023-05-21T03:35:12;22.88;;;19.08;;
33844;SDS011;20145;43.118;25.694;2023-05-21T03:37:40;19.45;;;17.33;;
33844;SDS011;20145;43.118;25.694;2023-05-21T03:40:06;17.85;;;15.75;;
33844;SDS011;20145;43.118;25.694;2023-05-21T03:42:46;21.02;;;14.65;;
33844;SDS011;20145;43.118;25.694;2023-05-21T03:45:13;16.95;;;15.25;;
33844;SDS011;20145;43.118;25.694;2023-05-21T03:47:38;20.02;;;15.32;;
33844;SDS011;20145;43.118;25.694;2023-05-21T03:50:05;22.35;;;18.08;;
33844;SDS011;20145;43.118;25.694;2023-05-21T03:52:32;22.30;;;17.48;;
33844;SDS011;20145;43.118;25.694;2023-05-21T03:54:57;25.73;;;18.73;;
33844;SDS011;20145;43.118;25.694;2023-05-21T03:57:23;17.15;;;15.27;;
33844;SDS011;20145;43.118;25.694;2023-05-21T03:59:48;23.45;;;13.38;;
33844;SDS011;20145;43.118;25.694;2023-05-21T04:02:14;18.52;;;12.48;;
33844;SDS011;20145;43.118;25.694;2023-05-21T04:04:39;18.63;;;11.25;;
33844;SDS011;20145;43.118;25.694;2023-05-21T04:07:05;14.73;;;10.13;;
33844;SDS011;20145;43.118;25.694;2023-05-21T04:09:38;15.30;;;10.73;;
33844;SDS011;20145;43.118;25.694;2023-05-21T04:12:05;16.75;;;11.95;;
33844;SDS011;20145;43.118;25.694;2023-05-21T04:14:32;17.30;;;13.02;;
33844;SDS011;20145;43.118;25.694;2023-05-21T04:16:58;14.82;;;12.48;;
33844;SDS011;20145;43.118;25.694;2023-05-21T04:19:24;12.88;;;11.07;;
33844;SDS011;20145;43.118;25.694;2023-05-21T04:21:49;13.05;;;11.60;;
33844;SDS011;20145;43.118;25.694;2023-05-21T04:24:15;13.25;;;11.15;;
33844;SDS011;20145;43.118;25.694;2023-05-21T04:26:40;15.73;;;11.95;;
33844;SDS011;20145;43.118;25.694;2023-05-21T04:29:07;13.05;;;11.35;;
33844;SDS011;20145;43.118;25.694;2023-05-21T04:31:32;16.52;;;12.25;;
33844;SDS011;20145;43.118;25.694;2023-05-21T04:33:59;19.27;;;10.35;;
33844;SDS011;20145;43.118;25.694;2023-05-21T04:36:25;14.70;;;10.30;;
33844;SDS011;20145;43.118;25.694;2023-05-21T04:38:53;11.90;;;9.93;;
33844;SDS011;20145;43.118;25.694;2023-05-21T04:41:19;14.32;;;11.00;;
33844;SDS011;20145;43.118;25.694;2023-05-21T04:43:45;18.98;;;11.60;;
33844;SDS011;20145;43.118;25.694;2023-05-21T04:46:11;12.30;;;10.93;;
33844;SDS011;20145;43.118;25.694;2023-05-21T04:51:14;11.10;;;10.00;;
33844;SDS011;20145;43.118;25.694;2023-05-21T04:53:39;14.38;;;10.68;;
33844;SDS011;20145;43.118;25.694;2023-05-21T04:56:05;12.95;;;10.88;;
33844;SDS011;20145;43.118;25.694;2023-05-21T04:58:33;15.00;;;11.25;;
33844;SDS011;20145;43.118;25.694;2023-05-21T05:00:59;14.73;;;10.73;;
33844;SDS011;20145;43.118;25.694;2023-05-21T05:03:29;16.70;;;10.88;;
33844;SDS011;20145;43.118;25.694;2023-05-21T05:05:55;11.68;;;10.57;;
33844;SDS011;20145;43.118;25.694;2023-05-21T05:08:20;11.85;;;10.50;;
33844;SDS011;20145;43.118;25.694;2023-05-21T05:10:47;12.10;;;10.68;;
33844;SDS011;20145;43.118;25.694;2023-05-21T05:13:14;21.10;;;13.85;;
33844;SDS011;20145;43.118;25.694;2023-05-21T05:15:41;15.35;;;10.57;;
33844;SDS011;20145;43.118;25.694;2023-05-21T05:18:07;16.08;;;11.23;;
33844;SDS011;20145;43.118;25.694;2023-05-21T05:20:34;12.95;;;11.25;;
33844;SDS011;20145;43.118;25.694;2023-05-21T05:23:00;13.43;;;10.50;;
33844;SDS011;20145;43.118;25.694;2023-05-21T05:25:25;13.18;;;10.50;;
33844;SDS011;20145;43.118;25.694;2023-05-21T05:27:51;13.30;;;10.27;;
33844;SDS011;20145;43.118;25.694;2023-05-21T05:30:16;11.60;;;10.18;;
33844;SDS011;20145;43.118;25.694;2023-05-21T05:32:42;13.38;;;10.38;;
33844;SDS011;20145;43.118;25.694;2023-05-21T05:35:08;12.93;;;11.10;;
33844;SDS011;20145;43.118;25.694;2023-05-21T05:37:33;14.13;;;11.25;;
33844;SDS011;20145;43.118;25.694;2023-05-21T05:40:01;13.77;;;10.38;;
33844;SDS011;20145;43.118;25.694;2023-05-21T05:42:28;13.18;;;10.30;;
33844;SDS011;20145;43.118;25.694;2023-05-21T05:44:54;14.05;;;10.57;;
33844;SDS011;20145;43.118;25.694;2023-05-21T05:47:20;14.55;;;10.05;;
33844;SDS011;20145;43.118;25.694;2023-05-21T05:49:45;12.70;;;9.48;;
33844;SDS011;20145;43.118;25.694;2023-05-21T05:52:11;12.48;;;9.93;;
33844;SDS011;20145;43.118;25.694;2023-05-21T05:54:37;14.90;;;10.73;;
33844;SDS011;20145;43.118;25.694;2023-05-21T05:57:03;14.85;;;10.70;;
33844;SDS011;20145;43.118;25.694;2023-05-21T05:59:29;16.67;;;10.02;;
33844;SDS011;20145;43.118;25.694;2023-05-21T06:01:54;14.82;;;9.68;;
33844;SDS011;20145;43.118;25.694;2023-05-21T06:04:20;12.57;;;10.38;;
33844;SDS011;20145;43.118;25.694;2023-05-21T06:06:45;14.48;;;10.45;;
33844;SDS011;20145;43.118;25.694;2023-05-21T06:09:12;14.45;;;10.43;;
33844;SDS011;20145;43.118;25.694;2023-05-21T06:11:37;12.32;;;10.93;;
33844;SDS011;20145;43.118;25.694;2023-05-21T06:14:03;11.93;;;10.45;;
33844;SDS011;20145;43.118;25.694;2023-05-21T06:16:28;16.80;;;11.18;;
33844;SDS011;20145;43.118;25.694;2023-05-21T06:18:58;12.05;;;10.75;;
33844;SDS011;20145;43.118;25.694;2023-05-21T06:21:23;12.32;;;11.05;;
33844;SDS011;20145;43.118;25.694;2023-05-21T06:23:49;12.75;;;11.00;;
33844;SDS011;20145;43.118;25.694;2023-05-21T06:26:14;13.85;;;10.55;;
33844;SDS011;20145;43.118;25.694;2023-05-21T06:28:40;13.52;;;10.65;;
33844;SDS011;20145;43.118;25.694;2023-05-21T06:31:05;15.45;;;11.73;;
33844;SDS011;20145;43.118;25.694;2023-05-21T06:33:31;13.02;;;11.23;;
33844;SDS011;20145;43.118;25.694;2023-05-21T06:35:57;15.10;;;11.45;;
33844;SDS011;20145;43.118;25.694;2023-05-21T06:38:22;12.27;;;10.77;;
33844;SDS011;20145;43.118;25.694;2023-05-21T06:40:48;16.35;;;12.18;;
33844;SDS011;20145;43.118;25.694;2023-05-21T06:43:14;13.93;;;11.38;;
33844;SDS011;20145;43.118;25.694;2023-05-21T06:45:40;14.48;;;11.27;;
33844;SDS011;20145;43.118;25.694;2023-05-21T06:48:05;13.13;;;11.70;;
33844;SDS011;20145;43.118;25.694;2023-05-21T06:50:31;13.88;;;10.63;;
33844;SDS011;20145;43.118;25.694;2023-05-21T06:52:56;14.43;;;10.77;;
33844;SDS011;20145;43.118;25.694;2023-05-21T06:55:22;15.52;;;11.93;;
33844;SDS011;20145;43.118;25.694;2023-05-21T06:57:48;15.50;;;10.25;;
33844;SDS011;20145;43.118;25.694;2023-05-21T07:00:14;11.02;;;9.57;;
33844;SDS011;20145;43.118;25.694;2023-05-21T07:02:39;13.02;;;10.43;;
33844;SDS011;20145;43.118;25.694;2023-05-21T07:05:05;14.10;;;10.70;;
33844;SDS011;20145;43.118;25.694;2023-05-21T07:07:30;12.05;;;10.27;;
33844;SDS011;20145;43.118;25.694;2023-05-21T07:09:58;13.10;;;10.63;;
33844;SDS011;20145;43.118;25.694;2023-05-21T07:12:24;18.05;;;10.35;;
33844;SDS011;20145;43.118;25.694;2023-05-21T07:14:49;12.32;;;10.02;;
33844;SDS011;20145;43.118;25.694;2023-05-21T07:17:15;11.73;;;10.60;;
33844;SDS011;20145;43.118;25.694;2023-05-21T07:19:41;11.85;;;9.52;;
33844;SDS011;20145;43.118;25.694;2023-05-21T07:22:06;11.43;;;10.20;;
33844;SDS011;20145;43.118;25.694;2023-05-21T07:24:32;14.32;;;11.20;;
33844;SDS011;20145;43.118;25.694;2023-05-21T07:26:57;14.27;;;10.90;;
33844;SDS011;20145;43.118;25.694;2023-05-21T07:29:23;14.02;;;10.10;;
33844;SDS011;20145;43.118;25.694;2023-05-21T07:31:48;11.88;;;10.18;;
33844;SDS011;20145;43.118;25.694;2023-05-21T07:34:14;12.75;;;10.10;;
33844;SDS011;20145;43.118;25.694;2023-05-21T07:36:40;16.13;;;10.13;;
33844;SDS011;20145;43.118;25.694;2023-05-21T07:39:05;13.80;;;10.30;;
33844;SDS011;20145;43.118;25.694;2023-05-21T07:41:31;14.13;;;10.15;;
33844;SDS011;20145;43.118;25.694;2023-05-21T07:43:56;13.88;;;10.55;;
33844;SDS011;20145;43.118;25.694;2023-05-21T07:46:24;15.18;;;10.68;;
33844;SDS011;20145;43.118;25.694;2023-05-21T07:48:49;11.32;;;9.68;;
33844;SDS011;20145;43.118;25.694;2023-05-21T07:51:15;11.68;;;9.70;;
33844;SDS011;20145;43.118;25.694;2023-05-21T07:53:41;16.88;;;10.43;;
33844;SDS011;20145;43.118;25.694;2023-05-21T07:56:06;15.57;;;9.93;;
33844;SDS011;20145;43.118;25.694;2023-05-21T07:58:32;15.23;;;10.10;;
33844;SDS011;20145;43.118;25.694;2023-05-21T08:00:59;15.50;;;10.13;;
33844;SDS011;20145;43.118;25.694;2023-05-21T08:03:25;15.52;;;10.57;;
33844;SDS011;20145;43.118;25.694;2023-05-21T08:05:51;14.65;;;9.90;;
33844;SDS011;20145;43.118;25.694;2023-05-21T08:08:18;12.02;;;8.93;;
33844;SDS011;20145;43.118;25.694;2023-05-21T08:10:44;12.57;;;9.48;;
33844;SDS011;20145;43.118;25.694;2023-05-21T08:13:10;15.52;;;9.00;;
33844;SDS011;20145;43.118;25.694;2023-05-21T08:15:37;11.00;;;9.20;;
33844;SDS011;20145;43.118;25.694;2023-05-21T08:18:02;11.80;;;8.48;;
33844;SDS011;20145;43.118;25.694;2023-05-21T08:20:28;12.82;;;10.27;;
33844;SDS011;20145;43.118;25.694;2023-05-21T08:22:56;12.52;;;8.98;;
33844;SDS011;20145;43.118;25.694;2023-05-21T08:25:21;12.80;;;8.55;;
33844;SDS011;20145;43.118;25.694;2023-05-21T08:27:47;10.75;;;7.38;;
33844;SDS011;20145;43.118;25.694;2023-05-21T08:30:12;9.23;;;7.07;;
33844;SDS011;20145;43.118;25.694;2023-05-21T08:32:38;12.48;;;8.35;;
33844;SDS011;20145;43.118;25.694;2023-05-21T08:35:04;13.02;;;8.57;;
33844;SDS011;20145;43.118;25.694;2023-05-21T08:37:31;14.02;;;9.02;;
33844;SDS011;20145;43.118;25.694;2023-05-21T08:39:57;10.43;;;8.60;;
33844;SDS011;20145;43.118;25.694;2023-05-21T08:44:58;11.32;;;8.75;;
33844;SDS011;20145;43.118;25.694;2023-05-21T08:47:25;10.50;;;7.97;;
33844;SDS011;20145;43.118;25.694;2023-05-21T08:49:53;13.02;;;9.23;;
33844;SDS011;20145;43.118;25.694;2023-05-21T08:52:20;13.68;;;8.25;;
33844;SDS011;20145;43.118;25.694;2023-05-21T08:54:46;16.27;;;9.02;;
33844;SDS011;20145;43.118;25.694;2023-05-21T08:57:14;12.13;;;9.85;;
33844;SDS011;20145;43.118;25.694;2023-05-21T08:59:41;13.55;;;8.60;;
33844;SDS011;20145;43.118;25.694;2023-05-21T09:02:10;11.93;;;8.32;;
33844;SDS011;20145;43.118;25.694;2023-05-21T09:04:38;9.63;;;8.45;;
33844;SDS011;20145;43.118;25.694;2023-05-21T09:07:05;12.30;;;8.75;;
33844;SDS011;20145;43.118;25.694;2023-05-21T09:09:34;13.95;;;8.80;;
33844;SDS011;20145;43.118;25.694;2023-05-21T09:12:07;15.52;;;7.80;;
33844;SDS011;20145;43.118;25.694;2023-05-21T09:14:33;10.70;;;7.15;;
33844;SDS011;20145;43.118;25.694;2023-05-21T09:16:59;11.98;;;7.50;;
33844;SDS011;20145;43.118;25.694;2023-05-21T09:19:25;10.02;;;7.85;;
33844;SDS011;20145;43.118;25.694;2023-05-21T09:21:53;10.98;;;8.23;;
33844;SDS011;20145;43.118;25.694;2023-05-21T09:24:20;11.68;;;7.57;;
33844;SDS011;20145;43.118;25.694;2023-05-21T09:26:49;8.73;;;7.45;;
33844;SDS011;20145;43.118;25.694;2023-05-21T09:29:15;10.35;;;7.55;;
33844;SDS011;20145;43.118;25.694;2023-05-21T09:31:42;9.30;;;7.18;;
33844;SDS011;20145;43.118;25.694;2023-05-21T09:34:09;12.30;;;7.78;;
33844;SDS011;20145;43.118;25.694;2023-05-21T09:36:36;12.43;;;7.70;;
33844;SDS011;20145;43.118;25.694;2023-05-21T09:39:02;13.00;;;7.78;;
33844;SDS011;20145;43.118;25.694;2023-05-21T09:41:32;14.23;;;6.97;;
33844;SDS011;20145;43.118;25.694;2023-05-21T09:44:00;10.05;;;7.10;;
33844;SDS011;20145;43.118;25.694;2023-05-21T09:46:26;12.23;;;7.05;;
33844;SDS011;20145;43.118;25.694;2023-05-21T09:48:52;10.45;;;7.10;;
33844;SDS011;20145;43.118;25.694;2023-05-21T09:51:18;8.38;;;7.43;;
33844;SDS011;20145;43.118;25.694;2023-05-21T09:53:54;11.68;;;7.95;;
33844;SDS011;20145;43.118;25.694;2023-05-21T09:56:26;10.95;;;7.25;;
33844;SDS011;20145;43.118;25.694;2023-05-21T09:58:55;13.63;;;7.90;;
33844;SDS011;20145;43.118;25.694;2023-05-21T10:01:26;8.98;;;7.47;;
33844;SDS011;20145;43.118;25.694;2023-05-21T10:03:53;9.35;;;6.57;;
33844;SDS011;20145;43.118;25.694;2023-05-21T10:06:24;8.20;;;6.53;;
33844;SDS011;20145;43.118;25.694;2023-05-21T10:08:52;11.13;;;7.10;;
33844;SDS011;20145;43.118;25.694;2023-05-21T10:11:24;15.25;;;8.15;;
33844;SDS011;20145;43.118;25.694;2023-05-21T10:14:00;9.63;;;6.60;;
33844;SDS011;20145;43.118;25.694;2023-05-21T10:16:31;8.70;;;7.25;;
33844;SDS011;20145;43.118;25.694;2023-05-21T10:18:58;10.27;;;6.20;;
33844;SDS011;20145;43.118;25.694;2023-05-21T10:21:27;9.35;;;6.30;;
33844;SDS011;20145;43.118;25.694;2023-05-21T10:23:55;11.05;;;6.60;;
33844;SDS011;20145;43.118;25.694;2023-05-21T10:26:22;11.45;;;7.32;;
33844;SDS011;20145;43.118;25.694;2023-05-21T10:28:49;8.60;;;6.78;;
33844;SDS011;20145;43.118;25.694;2023-05-21T10:31:15;15.32;;;6.95;;
33844;SDS011;20145;43.118;25.694;2023-05-21T10:33:41;11.13;;;7.43;;
33844;SDS011;20145;43.118;25.694;2023-05-21T10:36:08;7.68;;;6.90;;
33844;SDS011;20145;43.118;25.694;2023-05-21T10:38:34;9.70;;;6.65;;
33844;SDS011;20145;43.118;25.694;2023-05-21T10:41:01;12.43;;;6.65;;
33844;SDS011;20145;43.118;25.694;2023-05-21T10:43:43;10.20;;;6.35;;
33844;SDS011;20145;43.118;25.694;2023-05-21T11:00:53;14.65;;;6.70;;
33844;SDS011;20145;43.118;25.694;2023-05-21T11:03:19;12.60;;;5.95;;
33844;SDS011;20145;43.118;25.694;2023-05-21T11:05:56;8.48;;;6.38;;
33844;SDS011;20145;43.118;25.694;2023-05-21T11:11:00;9.70;;;6.10;;
33844;SDS011;20145;43.118;25.694;2023-05-21T11:13:27;10.32;;;5.78;;
33844;SDS011;20145;43.118;25.694;2023-05-21T11:21:03;8.60;;;6.47;;
33844;SDS011;20145;43.118;25.694;2023-05-21T11:23:51;10.32;;;6.45;;
33844;SDS011;20145;43.118;25.694;2023-05-21T11:26:23;11.55;;;6.40;;
33844;SDS011;20145;43.118;25.694;2023-05-21T11:29:05;6.15;;;5.28;;
33844;SDS011;20145;43.118;25.694;2023-05-21T11:31:35;8.85;;;5.45;;
33844;SDS011;20145;43.118;25.694;2023-05-21T11:36:43;10.50;;;5.40;;
33844;SDS011;20145;43.118;25.694;2023-05-21T11:39:10;9.38;;;5.68;;
33844;SDS011;20145;43.118;25.694;2023-05-21T11:41:51;9.18;;;5.32;;
33844;SDS011;20145;43.118;25.694;2023-05-21T11:44:40;9.65;;;5.05;;
33844;SDS011;20145;43.118;25.694;2023-05-21T11:47:07;9.02;;;5.32;;
33844;SDS011;20145;43.118;25.694;2023-05-21T11:49:35;8.10;;;5.15;;
33844;SDS011;20145;43.118;25.694;2023-05-21T11:52:02;8.73;;;5.50;;
33844;SDS011;20145;43.118;25.694;2023-05-21T11:54:28;10.90;;;4.95;;
33844;SDS011;20145;43.118;25.694;2023-05-21T11:56:58;10.63;;;5.13;;
33844;SDS011;20145;43.118;25.694;2023-05-21T11:59:25;6.75;;;4.93;;
33844;SDS011;20145;43.118;25.694;2023-05-21T12:01:51;11.10;;;5.13;;
33844;SDS011;20145;43.118;25.694;2023-05-21T12:04:16;8.57;;;4.80;;
33844;SDS011;20145;43.118;25.694;2023-05-21T12:06:42;6.95;;;4.90;;
33844;SDS011;20145;43.118;25.694;2023-05-21T12:09:08;7.25;;;5.10;;
33844;SDS011;20145;43.118;25.694;2023-05-21T12:11:36;6.82;;;5.60;;
33844;SDS011;20145;43.118;25.694;2023-05-21T12:14:07;9.40;;;5.30;;
33844;SDS011;20145;43.118;25.694;2023-05-21T12:16:34;6.43;;;5.13;;
33844;SDS011;20145;43.118;25.694;2023-05-21T12:19:03;11.50;;;5.55;;
33844;SDS011;20145;43.118;25.694;2023-05-21T12:21:30;12.10;;;5.50;;
33844;SDS011;20145;43.118;25.694;2023-05-21T12:23:56;8.07;;;5.10;;
33844;SDS011;20145;43.118;25.694;2023-05-21T12:26:22;11.65;;;5.30;;
33844;SDS011;20145;43.118;25.694;2023-05-21T12:28:54;9.25;;;5.03;;
33844;SDS011;20145;43.118;25.694;2023-05-21T12:31:20;8.48;;;5.00;;
33844;SDS011;20145;43.118;25.694;2023-05-21T12:33:50;10.00;;;6.15;;
33844;SDS011;20145;43.118;25.694;2023-05-21T12:36:25;7.22;;;4.88;;
33844;SDS011;20145;43.118;25.694;2023-05-21T12:38:52;9.68;;;5.80;;
33844;SDS011;20145;43.118;25.694;2023-05-21T12:41:18;8.77;;;5.10;;
33844;SDS011;20145;43.118;25.694;2023-05-21T12:43:46;10.95;;;6.28;;
33844;SDS011;20145;43.118;25.694;2023-05-21T12:46:12;5.97;;;5.32;;
33844;SDS011;20145;43.118;25.694;2023-05-21T12:48:39;10.07;;;5.18;;
33844;SDS011;20145;43.118;25.694;2023-05-21T12:51:06;9.73;;;7.10;;
33844;SDS011;20145;43.118;25.694;2023-05-21T12:53:36;12.13;;;5.13;;
33844;SDS011;20145;43.118;25.694;2023-05-21T12:56:11;13.32;;;5.78;;
33844;SDS011;20145;43.118;25.694;2023-05-21T12:58:39;7.93;;;5.10;;
33844;SDS011;20145;43.118;25.694;2023-05-21T13:01:08;8.48;;;4.70;;
33844;SDS011;20145;43.118;25.694;2023-05-21T13:03:35;9.68;;;5.10;;
33844;SDS011;20145;43.118;25.694;2023-05-21T13:06:06;6.43;;;5.13;;
33844;SDS011;20145;43.118;25.694;2023-05-21T13:08:32;8.43;;;4.50;;
33844;SDS011;20145;43.118;25.694;2023-05-21T13:10:59;7.47;;;4.30;;
33844;SDS011;20145;43.118;25.694;2023-05-21T13:13:25;7.75;;;4.93;;
33844;SDS011;20145;43.118;25.694;2023-05-21T13:15:51;6.28;;;5.40;;
33844;SDS011;20145;43.118;25.694;2023-05-21T13:18:18;9.07;;;4.90;;
33844;SDS011;20145;43.118;25.694;2023-05-21T13:20:45;5.70;;;4.97;;
33844;SDS011;20145;43.118;25.694;2023-05-21T13:23:11;6.65;;;4.45;;
33844;SDS011;20145;43.118;25.694;2023-05-21T13:25:38;11.43;;;5.00;;
33844;SDS011;20145;43.118;25.694;2023-05-21T13:28:04;7.88;;;4.80;;
33844;SDS011;20145;43.118;25.694;2023-05-21T13:30:30;6.88;;;4.07;;
33844;SDS011;20145;43.118;25.694;2023-05-21T13:32:57;8.45;;;4.82;;
33844;SDS011;20145;43.118;25.694;2023-05-21T13:35:23;7.00;;;4.60;;
33844;SDS011;20145;43.118;25.694;2023-05-21T13:37:50;6.20;;;4.65;;
33844;SDS011;20145;43.118;25.694;2023-05-21T13:40:18;6.70;;;4.30;;
33844;SDS011;20145;43.118;25.694;2023-05-21T13:42:44;6.47;;;4.45;;
33844;SDS011;20145;43.118;25.694;2023-05-21T13:45:12;7.70;;;4.07;;
33844;SDS011;20145;43.118;25.694;2023-05-21T13:47:40;8.27;;;4.35;;
33844;SDS011;20145;43.118;25.694;2023-05-21T13:50:06;5.93;;;4.13;;
33844;SDS011;20145;43.118;25.694;2023-05-21T13:52:33;10.43;;;4.65;;
33844;SDS011;20145;43.118;25.694;2023-05-21T13:54:58;11.75;;;4.82;;
33844;SDS011;20145;43.118;25.694;2023-05-21T13:57:24;10.98;;;4.38;;
33844;SDS011;20145;43.118;25.694;2023-05-21T13:59:54;9.48;;;4.70;;
33844;SDS011;20145;43.118;25.694;2023-05-21T14:02:20;7.15;;;4.32;;
33844;SDS011;20145;43.118;25.694;2023-05-21T14:04:46;10.52;;;4.28;;
33844;SDS011;20145;43.118;25.694;2023-05-21T14:07:12;7.57;;;4.13;;
33844;SDS011;20145;43.118;25.694;2023-05-21T14:09:38;6.45;;;4.03;;
33844;SDS011;20145;43.118;25.694;2023-05-21T14:12:03;7.30;;;3.95;;
33844;SDS011;20145;43.118;25.694;2023-05-21T14:14:30;7.00;;;3.80;;
33844;SDS011;20145;43.118;25.694;2023-05-21T14:16:56;9.95;;;3.83;;
33844;SDS011;20145;43.118;25.694;2023-05-21T14:19:22;5.85;;;3.97;;
33844;SDS011;20145;43.118;25.694;2023-05-21T14:21:50;5.32;;;3.55;;
33844;SDS011;20145;43.118;25.694;2023-05-21T14:24:16;5.40;;;3.85;;
33844;SDS011;20145;43.118;25.694;2023-05-21T14:26:41;7.68;;;4.53;;
33844;SDS011;20145;43.118;25.694;2023-05-21T14:29:07;6.32;;;3.92;;
33844;SDS011;20145;43.118;25.694;2023-05-21T14:31:33;7.22;;;3.30;;
33844;SDS011;20145;43.118;25.694;2023-05-21T14:33:59;7.50;;;3.63;;
33844;SDS011;20145;43.118;25.694;2023-05-21T14:36:26;4.60;;;4.03;;
33844;SDS011;20145;43.118;25.694;2023-05-21T14:38:52;5.90;;;3.00;;
33844;SDS011;20145;43.118;25.694;2023-05-21T14:41:18;5.00;;;2.78;;
33844;SDS011;20145;43.118;25.694;2023-05-21T14:43:44;6.65;;;3.53;;
33844;SDS011;20145;43.118;25.694;2023-05-21T14:46:09;3.90;;;2.83;;
33844;SDS011;20145;43.118;25.694;2023-05-21T14:48:35;6.22;;;2.50;;
33844;SDS011;20145;43.118;25.694;2023-05-21T14:51:00;6.35;;;2.65;;
33844;SDS011;20145;43.118;25.694;2023-05-21T14:53:26;3.15;;;2.65;;
33844;SDS011;20145;43.118;25.694;2023-05-21T14:55:51;5.63;;;3.13;;
33844;SDS011;20145;43.118;25.694;2023-05-21T14:58:18;7.53;;;2.95;;
33844;SDS011;20145;43.118;25.694;2023-05-21T15:00:44;7.28;;;2.58;;
33844;SDS011;20145;43.118;25.694;2023-05-21T15:03:09;5.90;;;2.42;;
33844;SDS011;20145;43.118;25.694;2023-05-21T15:05:36;6.93;;;3.08;;
33844;SDS011;20145;43.118;25.694;2023-05-21T15:08:02;3.60;;;2.03;;
33844;SDS011;20145;43.118;25.694;2023-05-21T15:10:29;3.97;;;2.15;;
33844;SDS011;20145;43.118;25.694;2023-05-21T15:12:55;9.45;;;2.88;;
33844;SDS011;20145;43.118;25.694;2023-05-21T15:15:20;7.93;;;2.60;;
33844;SDS011;20145;43.118;25.694;2023-05-21T15:17:46;4.97;;;2.08;;
33844;SDS011;20145;43.118;25.694;2023-05-21T15:20:12;3.78;;;2.38;;
33844;SDS011;20145;43.118;25.694;2023-05-21T15:22:38;4.13;;;2.40;;
33844;SDS011;20145;43.118;25.694;2023-05-21T15:25:04;5.97;;;1.80;;
33844;SDS011;20145;43.118;25.694;2023-05-21T15:27:30;7.93;;;2.58;;
33844;SDS011;20145;43.118;25.694;2023-05-21T15:29:56;7.60;;;2.53;;
33844;SDS011;20145;43.118;25.694;2023-05-21T15:32:22;5.47;;;2.60;;
33844;SDS011;20145;43.118;25.694;2023-05-21T15:34:48;8.27;;;2.50;;
33844;SDS011;20145;43.118;25.694;2023-05-21T15:37:14;4.75;;;3.55;;
33844;SDS011;20145;43.118;25.694;2023-05-21T15:39:43;5.90;;;3.22;;
33844;SDS011;20145;43.118;25.694;2023-05-21T15:42:10;6.50;;;2.90;;